createdAt,value
2022-11-07T00:01:52.538Z,98917.16
2022-11-07T00:04:39.185Z,98919.06
2022-11-07T00:07:25.427Z,98953.59
2022-11-07T00:10:11.969Z,98939.81
2022-11-07T00:12:58.158Z,98916.56
2022-11-07T00:15:44.656Z,98933.78
2022-11-07T00:18:31.481Z,98954.50
2022-11-07T00:21:17.832Z,98952.78
2022-11-07T00:24:04.592Z,98920.91
2022-11-07T00:26:51.164Z,98945.88
2022-11-07T00:29:37.724Z,98966.59
2022-11-07T00:32:24.029Z,98956.25
2022-11-07T00:35:10.400Z,98942.47
2022-11-07T00:37:57.086Z,98967.44
2022-11-07T00:40:43.345Z,98939.00
2022-11-07T00:43:30.550Z,98980.34
2022-11-07T00:46:17.924Z,98983.81
2022-11-07T00:49:04.555Z,98991.56
2022-11-07T00:51:50.724Z,98964.00
2022-11-07T00:54:37.163Z,98975.19
2022-11-07T00:57:23.688Z,98989.84
2022-11-07T01:00:10.815Z,98990.69
2022-11-07T01:03:15.940Z,98981.19
2022-11-07T01:06:03.798Z,98945.91
2022-11-07T01:08:50.250Z,98991.56
2022-11-07T01:11:38.389Z,98964.81
2022-11-07T01:14:25.264Z,98995.88
2022-11-07T01:17:11.681Z,98950.22
2022-11-07T01:19:57.864Z,98970.00
2022-11-07T01:22:44.042Z,98940.72
2022-11-07T01:25:30.505Z,98980.34
2022-11-07T01:28:16.654Z,98976.94
2022-11-07T01:31:04.678Z,98978.66
2022-11-07T01:33:50.869Z,98963.13
2022-11-07T01:36:37.443Z,98964.88
2022-11-07T01:39:23.533Z,98962.25
2022-11-07T01:42:12.078Z,98955.38
2022-11-07T01:44:59.778Z,98963.13
2022-11-07T01:47:46.197Z,98977.78
2022-11-07T01:50:32.493Z,98966.56
2022-11-07T01:53:18.704Z,98973.47
2022-11-07T01:56:11.680Z,98916.63
2022-11-07T01:59:00.292Z,98985.53
2022-11-07T02:01:46.870Z,98939.00
2022-11-07T02:04:33.702Z,98982.06
2022-11-07T02:07:23.121Z,98980.34
2022-11-07T02:10:11.060Z,98980.34
2022-11-07T02:12:59.348Z,98935.53
2022-11-07T02:15:46.037Z,98932.97
2022-11-07T02:18:36.198Z,98971.72
2022-11-07T02:21:40.175Z,98925.22
2022-11-07T02:24:30.276Z,98959.66
2022-11-07T02:27:19.899Z,98951.03
2022-11-07T02:30:10.927Z,98970.84
2022-11-07T02:32:57.333Z,98953.63
2022-11-07T02:35:49.292Z,98971.69
2022-11-07T02:38:37.305Z,98964.81
2022-11-07T02:41:27.255Z,98964.81
2022-11-07T02:44:14.459Z,98922.59
2022-11-07T02:47:01.088Z,98937.22
2022-11-07T02:49:47.434Z,98938.03
2022-11-07T02:52:33.799Z,98915.63
2022-11-07T02:55:20.341Z,98912.16
2022-11-07T02:58:06.538Z,98957.00
2022-11-07T03:00:52.777Z,98938.91
2022-11-07T03:03:48.099Z,98968.19
2022-11-07T03:06:34.705Z,98955.28
2022-11-07T03:09:20.984Z,98969.06
2022-11-07T03:12:07.764Z,98964.75
2022-11-07T03:14:54.238Z,98934.63
2022-11-07T03:17:41.566Z,98949.28
2022-11-07T03:20:28.093Z,98964.78
2022-11-07T03:23:14.433Z,98954.41
2022-11-07T03:26:01.262Z,98953.53
2022-11-07T03:28:47.468Z,98976.81
2022-11-07T03:31:33.879Z,98981.13
2022-11-07T03:34:19.957Z,98969.91
2022-11-07T03:37:06.318Z,98977.66
2022-11-07T03:39:52.547Z,98985.44
2022-11-07T03:42:43.930Z,98984.59
2022-11-07T03:45:30.317Z,98983.72
2022-11-07T03:48:16.756Z,98976.81
2022-11-07T03:51:04.071Z,98964.78
2022-11-07T03:53:50.135Z,98945.81
2022-11-07T03:56:36.468Z,98965.66
2022-11-07T03:59:22.991Z,98985.47
2022-11-07T04:02:09.586Z,98999.31
2022-11-07T04:04:56.158Z,98985.50
2022-11-07T04:07:42.852Z,98981.19
2022-11-07T04:10:28.933Z,98988.94
2022-11-07T04:13:34.015Z,98999.28
2022-11-07T04:16:38.721Z,99019.13
2022-11-07T04:19:26.433Z,98997.59
2022-11-07T04:22:12.960Z,99007.09
2022-11-07T04:24:59.038Z,99022.59
2022-11-07T04:27:46.827Z,99001.91
2022-11-07T04:30:33.179Z,99011.38
2022-11-07T04:33:19.713Z,98988.97
2022-11-07T04:36:05.938Z,98997.56
2022-11-07T04:38:52.168Z,99026.00
2022-11-07T04:41:38.645Z,98994.16
2022-11-07T04:44:25.229Z,99032.06
2022-11-07T04:47:11.459Z,98979.50
2022-11-07T04:49:57.849Z,99008.78
2022-11-07T04:52:45.612Z,99014.81
2022-11-07T04:55:32.086Z,99004.50
2022-11-07T04:58:18.751Z,98990.72
2022-11-07T05:01:05.056Z,99035.53
2022-11-07T05:03:51.178Z,99007.06
2022-11-07T05:06:38.075Z,99043.28
2022-11-07T05:09:24.925Z,99003.63
2022-11-07T05:12:11.393Z,99037.25
2022-11-07T05:14:57.841Z,99038.94
2022-11-07T05:17:44.641Z,99054.47
2022-11-07T05:20:32.487Z,99045.88
2022-11-07T05:23:19.971Z,99037.22
2022-11-07T05:26:06.606Z,99035.53
2022-11-07T05:28:53.008Z,99026.88
2022-11-07T05:31:39.308Z,99052.72
2022-11-07T05:34:25.929Z,99025.13
2022-11-07T05:37:12.897Z,99051.00
2022-11-07T05:39:59.494Z,99005.22
2022-11-07T05:42:45.560Z,99049.19
2022-11-07T05:45:33.783Z,99033.63
2022-11-07T05:48:20.152Z,99040.44
2022-11-07T05:51:07.757Z,99025.72
2022-11-07T05:53:53.828Z,99051.56
2022-11-07T05:56:40.867Z,99061.03
2022-11-07T05:59:29.863Z,99064.44
2022-11-07T06:02:16.513Z,99057.63
2022-11-07T06:05:02.559Z,99039.53
2022-11-07T06:07:49.246Z,99041.31
2022-11-07T06:10:37.020Z,99035.34
2022-11-07T06:13:23.240Z,99020.69
2022-11-07T06:16:09.548Z,99057.78
2022-11-07T06:18:55.852Z,99041.41
2022-11-07T06:21:42.057Z,99063.78
2022-11-07T06:24:28.336Z,99061.22
2022-11-07T06:27:14.472Z,99058.56
2022-11-07T06:30:00.651Z,99067.19
2022-11-07T06:32:47.109Z,99075.78
2022-11-07T06:35:34.252Z,99057.66
2022-11-07T06:38:20.764Z,99073.13
2022-11-07T06:41:12.755Z,99072.25
2022-11-07T06:43:59.086Z,99037.72
2022-11-07T06:46:47.029Z,99077.41
2022-11-07T06:49:33.495Z,99070.47
2022-11-07T06:52:19.803Z,99073.09
2022-11-07T06:55:06.849Z,99079.19
2022-11-07T06:57:57.740Z,99065.38
2022-11-07T07:00:44.189Z,99071.44
2022-11-07T07:03:30.838Z,99093.88
2022-11-07T07:06:17.774Z,99098.25
2022-11-07T07:09:06.666Z,99104.28
2022-11-07T07:11:52.946Z,99098.28
2022-11-07T07:14:39.178Z,99088.84
2022-11-07T07:17:25.569Z,99113.03
2022-11-07T07:20:12.116Z,99097.50
2022-11-07T07:23:04.390Z,99111.28
2022-11-07T07:25:52.803Z,99119.03
2022-11-07T07:28:39.457Z,99107.84
2022-11-07T07:31:30.692Z,99117.31
2022-11-07T07:34:17.144Z,99116.47
2022-11-07T07:37:03.605Z,99112.19
2022-11-07T07:39:49.760Z,99119.09
2022-11-07T07:42:41.966Z,99088.06
2022-11-07T07:45:28.168Z,99108.78
2022-11-07T07:48:14.430Z,99113.97
2022-11-07T07:51:00.995Z,99081.22
2022-11-07T07:53:47.190Z,99111.38
2022-11-07T07:56:33.585Z,99072.59
2022-11-07T07:59:19.680Z,99085.53
2022-11-07T08:02:10.444Z,99085.53
2022-11-07T08:04:56.676Z,99114.00
2022-11-07T08:07:51.013Z,99125.19
2022-11-07T08:10:42.530Z,99108.78
2022-11-07T08:13:29.795Z,99119.97
2022-11-07T08:16:16.401Z,99122.56
2022-11-07T08:19:02.513Z,99107.91
2022-11-07T08:21:49.004Z,99114.81
2022-11-07T08:24:35.423Z,99102.72
2022-11-07T08:27:21.773Z,99121.69
2022-11-07T08:30:12.594Z,99114.78
2022-11-07T08:33:03.174Z,99106.13
2022-11-07T08:35:49.372Z,99111.25
2022-11-07T08:38:36.209Z,99128.41
2022-11-07T08:41:22.829Z,99095.66
2022-11-07T08:44:09.681Z,99136.06
2022-11-07T08:46:55.905Z,99105.78
2022-11-07T08:49:42.452Z,99120.38
2022-11-07T08:52:28.489Z,99108.94
2022-11-07T08:55:15.121Z,99117.50
2022-11-07T08:58:03.540Z,99125.25
2022-11-07T09:00:49.773Z,99083.06
2022-11-07T09:03:47.785Z,99108.84
2022-11-07T09:06:35.763Z,99083.81
2022-11-07T09:09:21.951Z,99087.28
2022-11-07T09:12:08.924Z,99133.69
2022-11-07T09:14:55.254Z,99135.38
2022-11-07T09:17:41.995Z,99119.81
2022-11-07T09:20:28.498Z,99113.69
2022-11-07T09:23:15.359Z,99132.53
2022-11-07T09:26:01.966Z,99141.16
2022-11-07T09:28:52.352Z,99141.13
2022-11-07T09:31:41.494Z,99101.25
2022-11-07T09:34:28.065Z,99143.34
2022-11-07T09:37:14.588Z,99129.53
2022-11-07T09:40:01.041Z,99119.97
2022-11-07T09:43:13.844Z,99139.75
2022-11-07T09:46:35.880Z,99135.38
2022-11-07T09:49:32.377Z,99129.16
2022-11-07T09:52:43.744Z,99129.97
2022-11-07T09:55:50.888Z,99126.31
2022-11-07T09:58:42.295Z,99103.84
2022-11-07T10:01:31.751Z,99105.47
2022-11-07T10:04:25.807Z,99104.31
2022-11-07T10:07:35.865Z,99148.34
2022-11-07T10:10:21.925Z,99145.56
2022-11-07T10:13:14.895Z,99139.38
2022-11-07T10:16:16.439Z,99134.78
2022-11-07T10:19:14.200Z,99131.28
2022-11-07T10:22:22.317Z,99135.53
2022-11-07T10:25:24.833Z,99131.13
2022-11-07T10:28:19.760Z,99112.84
2022-11-07T10:31:10.995Z,99119.41
2022-11-07T10:34:04.664Z,99110.50
2022-11-07T10:36:51.290Z,99106.09
2022-11-07T10:39:38.013Z,99122.16
2022-11-07T10:42:29.400Z,99118.78
2022-11-07T10:45:17.154Z,99111.75
2022-11-07T10:48:04.646Z,99098.56
2022-11-07T10:50:54.502Z,99119.31
2022-11-07T10:53:45.047Z,99099.66
2022-11-07T10:56:40.793Z,99109.09
2022-11-07T10:59:34.623Z,99112.59
2022-11-07T11:02:32.249Z,99097.06
2022-11-07T11:05:22.537Z,99106.00
2022-11-07T11:08:20.590Z,99106.94
2022-11-07T11:11:16.520Z,99109.44
2022-11-07T11:14:10.594Z,99073.19
2022-11-07T11:16:57.474Z,99070.81
2022-11-07T11:19:52.678Z,99094.88
2022-11-07T11:22:43.061Z,99090.66
2022-11-07T11:25:29.664Z,99102.13
2022-11-07T11:28:33.959Z,99109.22
2022-11-07T11:31:48.985Z,99108.69
2022-11-07T11:34:58.031Z,99112.44
2022-11-07T11:37:58.100Z,99082.53
2022-11-07T11:40:51.077Z,99118.72
2022-11-07T11:43:51.393Z,99065.22
2022-11-07T11:46:55.492Z,99081.41
2022-11-07T11:50:00.250Z,99109.94
2022-11-07T11:52:46.808Z,99101.16
2022-11-07T11:55:40.589Z,99109.78
2022-11-07T11:58:42.705Z,99094.44
2022-11-07T12:01:50.519Z,99066.28
2022-11-07T12:05:06.373Z,99104.28
2022-11-07T12:08:19.048Z,99093.53
2022-11-07T12:11:25.644Z,99066.75
2022-11-07T12:14:34.029Z,99085.22
2022-11-07T12:17:39.389Z,99095.31
2022-11-07T12:20:32.119Z,99078.47
2022-11-07T12:23:30.903Z,99087.84
2022-11-07T12:26:29.896Z,99089.88
2022-11-07T12:29:44.328Z,99090.16
2022-11-07T12:32:49.759Z,99089.59
2022-11-07T12:35:48.177Z,99088.03
2022-11-07T12:38:37.886Z,99084.63
2022-11-07T12:41:53.286Z,99087.88
2022-11-07T12:45:13.987Z,99088.53
2022-11-07T12:48:25.243Z,99076.16
2022-11-07T12:51:43.738Z,99075.84
2022-11-07T12:54:46.462Z,99085.97
2022-11-07T12:57:36.577Z,99051.78
2022-11-07T13:00:30.000Z,99071.09
2022-11-07T13:03:25.409Z,99081.59
2022-11-07T13:06:48.907Z,99059.66
2022-11-07T13:09:57.965Z,99091.19
2022-11-07T13:12:58.354Z,99085.66
2022-11-07T13:16:13.602Z,99079.84
2022-11-07T13:18:50.736Z,99057.44
2022-11-07T13:21:42.022Z,99075.47
2022-11-07T13:24:29.677Z,99041.94
2022-11-07T13:27:31.761Z,99065.47
2022-11-07T13:30:45.587Z,99065.47
2022-11-07T13:33:37.178Z,99038.78
2022-11-07T13:36:27.883Z,99059.47
2022-11-07T13:39:14.655Z,99034.53
2022-11-07T13:42:01.373Z,99060.34
2022-11-07T13:44:55.496Z,99066.53
2022-11-07T13:47:43.055Z,99070.09
2022-11-07T13:50:46.490Z,99050.47
2022-11-07T13:54:03.389Z,99064.06
2022-11-07T13:57:01.651Z,99064.00
2022-11-07T13:59:54.162Z,99064.81
2022-11-07T14:02:55.392Z,99044.91
2022-11-07T14:05:42.341Z,99029.47
2022-11-07T14:08:35.556Z,99064.69
2022-11-07T14:11:23.556Z,99051.31
2022-11-07T14:14:10.599Z,99048.13
2022-11-07T14:17:00.544Z,99070.59
2022-11-07T14:19:47.280Z,99072.56
2022-11-07T14:22:33.442Z,99048.63
2022-11-07T14:25:30.229Z,99084.13
2022-11-07T14:28:17.051Z,99066.06
2022-11-07T14:31:15.206Z,99085.88
2022-11-07T14:34:18.000Z,99085.25
2022-11-07T14:37:06.974Z,99023.50
2022-11-07T14:39:54.026Z,99034.16
2022-11-07T14:42:42.108Z,99076.41
2022-11-07T14:45:56.976Z,99035.41
2022-11-07T14:48:36.169Z,99047.44
2022-11-07T14:51:26.328Z,99079.41
2022-11-07T14:54:18.631Z,99037.63
2022-11-07T14:57:06.952Z,99053.34
2022-11-07T14:59:54.189Z,99082.81
2022-11-07T15:02:41.331Z,99087.28
2022-11-07T15:05:46.059Z,99085.75
2022-11-07T15:08:35.040Z,99051.44
2022-11-07T15:11:26.963Z,99064.38
2022-11-07T15:14:29.166Z,99076.50
2022-11-07T15:17:23.303Z,99071.41
2022-11-07T15:20:21.493Z,99078.34
2022-11-07T15:23:13.836Z,99081.91
2022-11-07T15:26:11.406Z,99081.88
2022-11-07T15:29:14.016Z,99086.34
2022-11-07T15:32:13.360Z,99085.53
2022-11-07T15:35:17.508Z,99073.59
2022-11-07T15:38:06.673Z,99086.53
2022-11-07T15:40:53.822Z,99070.28
2022-11-07T15:43:39.908Z,99089.31
2022-11-07T15:46:37.688Z,99060.03
2022-11-07T15:49:26.037Z,99062.63
2022-11-07T15:52:12.992Z,99085.09
2022-11-07T15:54:59.486Z,99079.13
2022-11-07T15:57:49.364Z,99085.25
2022-11-07T16:00:35.701Z,99080.16
2022-11-07T16:03:24.414Z,99081.94
2022-11-07T16:06:30.497Z,99046.66
2022-11-07T16:09:21.974Z,99050.16
2022-11-07T16:12:12.777Z,99069.22
2022-11-07T16:14:59.264Z,99059.81
2022-11-07T16:17:45.856Z,99084.91
2022-11-07T16:20:33.513Z,99062.59
2022-11-07T16:23:20.981Z,99059.22
2022-11-07T16:26:10.582Z,99054.13
2022-11-07T16:28:56.855Z,99051.59
2022-11-07T16:31:43.125Z,99084.41
2022-11-07T16:34:29.473Z,99087.88
2022-11-07T16:37:15.823Z,99075.03
2022-11-07T16:40:02.511Z,99075.91
2022-11-07T16:42:48.875Z,99090.59
2022-11-07T16:45:37.117Z,99097.50
2022-11-07T16:48:26.563Z,99103.53
2022-11-07T16:51:15.885Z,99100.97
2022-11-07T16:54:01.896Z,99078.56
2022-11-07T16:56:51.235Z,99076.84
2022-11-07T16:59:37.662Z,99088.06
2022-11-07T17:02:25.853Z,99088.94
2022-11-07T17:05:12.477Z,99083.75
2022-11-07T17:08:01.251Z,99105.34
2022-11-07T17:10:47.840Z,99088.97
2022-11-07T17:13:34.271Z,99061.38
2022-11-07T17:16:24.108Z,99107.97
2022-11-07T17:19:12.174Z,99070.00
2022-11-07T17:21:58.730Z,99088.09
2022-11-07T17:24:45.661Z,99101.91
2022-11-07T17:27:32.160Z,99083.81
2022-11-07T17:30:19.684Z,99101.06
2022-11-07T17:33:05.965Z,99113.09
2022-11-07T17:35:54.941Z,99084.66
2022-11-07T17:38:41.177Z,99115.69
2022-11-07T17:41:29.792Z,99113.09
2022-11-07T17:44:17.533Z,99115.69
2022-11-07T17:47:03.758Z,99098.44
2022-11-07T17:49:49.905Z,99113.13
2022-11-07T17:52:36.007Z,99095.88
2022-11-07T17:55:24.518Z,99115.72
2022-11-07T17:58:10.832Z,99104.50
2022-11-07T18:00:58.317Z,99105.34
2022-11-07T18:03:44.741Z,99108.81
2022-11-07T18:06:34.423Z,99113.13
2022-11-07T18:09:20.754Z,99082.06
2022-11-07T18:12:07.596Z,99036.38
2022-11-07T18:14:54.056Z,99114.84
2022-11-07T18:17:41.671Z,99114.84
2022-11-07T18:20:28.662Z,99110.53
2022-11-07T18:23:15.102Z,99082.94
2022-11-07T18:26:09.061Z,99110.53
2022-11-07T18:29:09.368Z,99099.34
2022-11-07T18:31:57.336Z,99113.13
2022-11-07T18:34:43.744Z,99081.19
2022-11-07T18:37:30.121Z,99080.38
2022-11-07T18:40:16.461Z,99084.69
2022-11-07T18:43:02.669Z,99108.81
2022-11-07T18:45:49.013Z,99080.34
2022-11-07T18:48:37.003Z,99104.50
2022-11-07T18:51:24.552Z,99051.91
2022-11-07T18:54:13.520Z,99104.50
2022-11-07T18:57:00.148Z,99099.34
2022-11-07T18:59:46.554Z,99100.19
2022-11-07T19:02:34.706Z,99076.03
2022-11-07T19:05:21.891Z,99057.94
2022-11-07T19:08:08.459Z,99088.13
2022-11-07T19:10:55.761Z,99093.28
2022-11-07T19:13:47.766Z,99090.69
2022-11-07T19:16:34.378Z,99085.53
2022-11-07T19:19:20.748Z,99088.97
2022-11-07T19:22:07.197Z,99095.84
2022-11-07T19:24:53.820Z,99094.09
2022-11-07T19:27:41.225Z,99096.69
2022-11-07T19:30:28.298Z,99101.88
2022-11-07T19:33:16.036Z,99089.81
2022-11-07T19:36:05.806Z,99090.66
2022-11-07T19:38:52.237Z,99094.97
2022-11-07T19:41:38.676Z,99093.22
2022-11-07T19:44:24.908Z,99036.25
2022-11-07T19:47:11.367Z,99099.22
2022-11-07T19:49:57.674Z,99091.41
2022-11-07T19:52:44.281Z,99105.22
2022-11-07T19:55:30.693Z,99075.00
2022-11-07T19:58:17.137Z,99099.13
2022-11-07T20:01:13.641Z,99075.78
2022-11-07T20:04:01.605Z,99069.69
2022-11-07T20:06:50.116Z,99099.06
2022-11-07T20:09:36.746Z,99086.09
2022-11-07T20:12:23.128Z,99081.72
2022-11-07T20:15:10.525Z,99098.94
2022-11-07T20:17:56.927Z,99080.78
2022-11-07T20:20:43.253Z,99104.03
2022-11-07T20:23:31.211Z,99104.88
2022-11-07T20:26:22.066Z,99111.69
2022-11-07T20:29:09.001Z,99114.25
2022-11-07T20:31:55.456Z,99115.97
2022-11-07T20:34:41.786Z,99119.50
2022-11-07T20:37:28.322Z,99091.06
2022-11-07T20:40:14.820Z,99114.31
2022-11-07T20:43:01.794Z,99097.09
2022-11-07T20:45:48.361Z,99113.53
2022-11-07T20:48:35.041Z,99070.28
2022-11-07T20:51:25.058Z,99113.41
2022-11-07T20:54:13.645Z,99118.44
2022-11-07T20:57:00.281Z,99104.47
2022-11-07T20:59:46.451Z,99128.53
2022-11-07T21:07:05.830Z,99131.78
2022-11-07T21:09:52.119Z,99099.75
2022-11-07T21:12:38.568Z,99104.91
2022-11-07T21:15:24.699Z,99098.84
2022-11-07T21:18:12.501Z,99122.94
2022-11-07T21:21:10.622Z,99092.63
2022-11-07T21:23:57.720Z,99128.84
2022-11-07T21:26:44.522Z,99126.19
2022-11-07T21:29:31.726Z,99104.63
2022-11-07T21:32:17.872Z,99130.56
2022-11-07T21:35:04.917Z,99090.88
2022-11-07T21:37:51.433Z,99047.56
2022-11-07T21:40:38.618Z,99089.88
2022-11-07T21:43:25.000Z,99117.44
2022-11-07T21:46:13.966Z,99112.19
2022-11-07T21:49:00.467Z,99092.38
2022-11-07T21:51:49.992Z,99104.34
2022-11-07T21:54:36.260Z,99103.38
2022-11-07T21:57:22.736Z,99111.06
2022-11-07T22:00:10.567Z,99100.63
2022-11-07T22:02:56.805Z,99090.34
2022-11-07T22:05:43.938Z,99102.34
2022-11-07T22:08:30.731Z,99043.53
2022-11-07T22:11:17.637Z,99091.91
2022-11-07T22:14:03.937Z,99067.66
2022-11-07T22:16:51.240Z,99085.75
2022-11-07T22:19:37.866Z,99091.72
2022-11-07T22:22:24.389Z,99086.47
2022-11-07T22:25:10.835Z,99081.31
2022-11-07T22:27:57.300Z,99058.78
2022-11-07T22:30:43.856Z,99080.28
2022-11-07T22:33:30.121Z,99051.69
2022-11-07T22:36:17.029Z,99067.22
2022-11-07T22:39:03.656Z,99072.31
2022-11-07T22:41:50.132Z,99034.22
2022-11-07T22:44:36.646Z,99060.16
2022-11-07T22:47:22.934Z,99058.44
2022-11-07T22:50:09.472Z,99038.53
2022-11-07T22:52:56.079Z,99023.63
2022-11-07T22:55:42.504Z,99077.25
2022-11-07T22:58:29.026Z,99048.00
2022-11-07T23:01:18.984Z,99029.94
2022-11-07T23:04:06.964Z,99075.66
2022-11-07T23:06:53.321Z,99059.13
2022-11-07T23:09:39.782Z,99066.16
2022-11-07T23:12:26.588Z,99057.41
2022-11-07T23:15:13.023Z,99023.50
2022-11-07T23:17:59.552Z,99051.38
2022-11-07T23:21:04.467Z,99018.31
2022-11-07T23:23:54.105Z,99040.88
2022-11-07T23:26:40.963Z,99050.22
2022-11-07T23:29:27.501Z,99012.31
2022-11-07T23:32:14.134Z,99016.41
2022-11-07T23:35:00.451Z,99045.72
2022-11-07T23:37:49.060Z,99047.38
2022-11-07T23:40:36.461Z,99024.81
2022-11-07T23:43:23.996Z,98988.59
2022-11-07T23:46:31.505Z,99048.03
2022-11-07T23:49:37.819Z,99038.44
2022-11-07T23:52:23.959Z,99015.00
2022-11-07T23:55:42.413Z,99019.19
2022-11-07T23:58:47.408Z,99029.53
